Terminal Aerodrome Forecast
Issued by NWS

Current Version | Previous Version | Text Only | Print | Product List | Glossary On
Versions: 1 2 3 4 5 6 7 8 9 10 11 12 13
000
FTUS41 KPBZ 010520
TAFBVI
TAF
KBVI 010520Z 0106/0206 00000KT 6SM BR SKC
     FM010900 00000KT 2SM BR SKC
     FM011400 27005KT P6SM SCT040
      AMD NOT SKED 0106/0112=

USA.gov is the U.S. government's official web portal to all federal, state and local government web resources and services.